createdAt,value
2023-03-12T00:01:16.787Z,101081.84
2023-03-12T00:03:43.717Z,101069.66
2023-03-12T00:06:11.210Z,101068.84
2023-03-12T00:08:38.100Z,101064.53
2023-03-12T00:11:12.925Z,101068.78
2023-03-12T00:13:39.940Z,101066.31
2023-03-12T00:16:11.797Z,101065.47
2023-03-12T00:18:38.645Z,101058.41
2023-03-12T00:21:05.456Z,101063.50
2023-03-12T00:23:32.022Z,101068.78
2023-03-12T00:26:03.425Z,101054.06
2023-03-12T00:28:30.510Z,101047.19
2023-03-12T00:30:58.427Z,101060.25
2023-03-12T00:33:26.329Z,101055.13
2023-03-12T00:35:53.579Z,101054.34
2023-03-12T00:38:20.153Z,101050.88
2023-03-12T00:40:46.660Z,101061.44
2023-03-12T00:43:13.687Z,101041.47
2023-03-12T00:45:40.174Z,101043.16
2023-03-12T00:48:09.556Z,101035.34
2023-03-12T00:50:36.104Z,101033.59
2023-03-12T00:53:02.622Z,101039.72
2023-03-12T00:55:29.203Z,101036.16
2023-03-12T00:57:55.781Z,101039.66
2023-03-12T01:00:22.571Z,101048.31
2023-03-12T01:02:49.097Z,101042.91
2023-03-12T01:05:15.846Z,101042.94
2023-03-12T01:07:43.004Z,101046.47
2023-03-12T01:10:10.440Z,101046.47
2023-03-12T01:12:37.161Z,101036.78
2023-03-12T01:15:04.658Z,101028.13
2023-03-12T01:17:31.182Z,101024.81
2023-03-12T01:19:57.873Z,101011.63
2023-03-12T01:22:24.481Z,101013.28
2023-03-12T01:24:50.996Z,100996.78
2023-03-12T01:27:17.520Z,100996.72
2023-03-12T01:29:44.289Z,100995.91
2023-03-12T01:32:10.892Z,100993.25
2023-03-12T01:34:37.574Z,100996.66
2023-03-12T01:37:04.118Z,100999.34
2023-03-12T01:39:30.693Z,100993.25
2023-03-12T01:41:57.327Z,100995.06
2023-03-12T01:44:23.938Z,100971.75
2023-03-12T01:46:50.595Z,100991.78
2023-03-12T01:49:30.313Z,100975.16
2023-03-12T01:51:59.554Z,100990.81
2023-03-12T01:54:30.980Z,100988.22
2023-03-12T01:56:57.646Z,100982.06
2023-03-12T01:59:29.755Z,100978.75
2023-03-12T02:01:56.696Z,100967.50
2023-03-12T02:04:25.605Z,100958.78
2023-03-12T02:07:13.828Z,100957.94
2023-03-12T02:09:42.190Z,100952.72
2023-03-12T02:12:09.582Z,100939.66
2023-03-12T02:14:36.752Z,100929.13
2023-03-12T02:17:03.752Z,100928.19
2023-03-12T02:19:36.027Z,100923.72
2023-03-12T02:22:03.570Z,100921.97
2023-03-12T02:24:41.257Z,100926.28
2023-03-12T02:27:08.174Z,100925.47
2023-03-12T02:29:36.293Z,100920.34
2023-03-12T02:32:04.544Z,100927.38
2023-03-12T02:34:31.259Z,100925.41
2023-03-12T02:36:57.784Z,100923.78
2023-03-12T02:39:24.800Z,100922.09
2023-03-12T02:41:55.844Z,100916.84
2023-03-12T02:44:33.476Z,100925.59
2023-03-12T02:47:01.455Z,100924.72
2023-03-12T02:49:31.169Z,100924.75
2023-03-12T02:51:58.202Z,100903.88
2023-03-12T02:54:25.237Z,100904.06
2023-03-12T02:56:52.476Z,100885.72
2023-03-12T02:59:22.901Z,100885.72
2023-03-12T03:01:55.992Z,100877.03
2023-03-12T03:04:23.419Z,100864.09
2023-03-12T03:06:50.023Z,100860.66
2023-03-12T03:09:16.568Z,100859.84
2023-03-12T03:11:43.253Z,100862.47
2023-03-12T03:14:10.237Z,100847.59
2023-03-12T03:16:36.824Z,100844.13
2023-03-12T03:19:03.780Z,100847.63
2023-03-12T03:21:30.783Z,100843.25
2023-03-12T03:23:57.277Z,100836.28
2023-03-12T03:26:24.650Z,100836.16
2023-03-12T03:28:51.405Z,100843.06
2023-03-12T03:31:18.404Z,100832.53
2023-03-12T03:33:45.328Z,100829.00
2023-03-12T03:36:14.860Z,100829.78
2023-03-12T03:38:42.368Z,100835.91
2023-03-12T03:41:09.049Z,100835.13
2023-03-12T03:43:35.645Z,100839.53
2023-03-12T03:46:04.317Z,100837.78
2023-03-12T03:48:31.221Z,100825.59
2023-03-12T03:51:02.030Z,100838.78
2023-03-12T03:53:28.709Z,100835.38
2023-03-12T03:55:55.239Z,100836.38
2023-03-12T03:58:21.777Z,100831.31
2023-03-12T04:00:48.322Z,100828.91
2023-03-12T04:03:14.918Z,100817.91
2023-03-12T04:05:45.458Z,100820.72
2023-03-12T04:08:13.327Z,100819.97
2023-03-12T04:10:40.145Z,100816.59
2023-03-12T04:13:06.729Z,100822.81
2023-03-12T04:15:33.351Z,100819.41
2023-03-12T04:17:59.939Z,100807.22
2023-03-12T04:20:26.432Z,100795.97
2023-03-12T04:22:52.938Z,100781.19
2023-03-12T04:25:19.604Z,100779.47
2023-03-12T04:27:46.278Z,100768.22
2023-03-12T04:30:13.271Z,100757.78
2023-03-12T04:32:39.839Z,100744.72
2023-03-12T04:35:06.590Z,100740.44
2023-03-12T04:37:34.256Z,100735.22
2023-03-12T04:40:02.075Z,100730.00
2023-03-12T04:42:28.898Z,100727.34
2023-03-12T04:44:55.484Z,100754.34
2023-03-12T04:47:21.976Z,100769.13
2023-03-12T04:49:48.548Z,100761.22
2023-03-12T04:52:17.588Z,100752.53
2023-03-12T04:54:46.773Z,100752.50
2023-03-12T04:57:14.540Z,100748.13
2023-03-12T04:59:41.029Z,100741.16
2023-03-12T05:02:07.751Z,100753.25
2023-03-12T05:04:34.276Z,100749.78
2023-03-12T05:07:00.995Z,100736.84
2023-03-12T05:09:27.710Z,100738.56
2023-03-12T05:11:54.277Z,100738.56
2023-03-12T05:14:20.825Z,100729.81
2023-03-12T05:16:47.363Z,100742.81
2023-03-12T05:19:13.885Z,100752.44
2023-03-12T05:21:42.333Z,100746.38
2023-03-12T05:24:10.473Z,100744.69
2023-03-12T05:26:37.851Z,100747.31
2023-03-12T05:29:05.547Z,100747.31
2023-03-12T05:31:35.294Z,100757.78
2023-03-12T05:34:03.803Z,100749.91
2023-03-12T05:36:30.385Z,100749.03
2023-03-12T05:38:57.302Z,100742.84
2023-03-12T05:41:26.016Z,100746.41
2023-03-12T05:43:54.118Z,100744.63
2023-03-12T05:46:21.089Z,100750.69
2023-03-12T05:48:47.937Z,100734.06
2023-03-12T05:51:14.639Z,100741.00
2023-03-12T05:53:41.337Z,100736.59
2023-03-12T05:56:11.196Z,100739.19
2023-03-12T05:58:38.143Z,100739.09
2023-03-12T06:01:12.756Z,100739.97
2023-03-12T06:03:39.377Z,100731.22
2023-03-12T06:06:05.916Z,100724.22
2023-03-12T06:08:32.492Z,100725.09
2023-03-12T06:10:59.479Z,100723.31
2023-03-12T06:13:27.442Z,100723.28
2023-03-12T06:15:54.025Z,100717.13
2023-03-12T06:18:20.573Z,100723.19
2023-03-12T06:20:47.103Z,100712.63
2023-03-12T06:23:13.767Z,100706.47
2023-03-12T06:25:40.289Z,100703.75
2023-03-12T06:28:06.874Z,100704.53
2023-03-12T06:30:33.444Z,100705.44
2023-03-12T06:32:59.953Z,100710.66
2023-03-12T06:35:26.547Z,100693.13
2023-03-12T06:37:53.096Z,100689.56
2023-03-12T06:40:19.745Z,100699.22
2023-03-12T06:42:46.586Z,100702.59
2023-03-12T06:45:13.136Z,100687.69
2023-03-12T06:47:39.602Z,100706.09
2023-03-12T06:50:06.699Z,100693.00
2023-03-12T06:52:33.227Z,100697.41
2023-03-12T06:54:59.760Z,100699.13
2023-03-12T06:57:26.269Z,100689.53
2023-03-12T06:59:52.888Z,100695.56
2023-03-12T07:02:19.505Z,100705.97
2023-03-12T07:04:46.262Z,100679.59
2023-03-12T07:07:12.823Z,100701.28
2023-03-12T07:09:39.364Z,100706.41
2023-03-12T07:12:06.108Z,100709.69
2023-03-12T07:14:32.637Z,100703.44
2023-03-12T07:17:01.817Z,100718.09
2023-03-12T07:19:30.355Z,100687.41
2023-03-12T07:21:57.311Z,100691.50
2023-03-12T07:24:24.786Z,100686.19
2023-03-12T07:26:51.307Z,100699.22
2023-03-12T07:29:18.012Z,100699.09
2023-03-12T07:31:44.720Z,100703.34
2023-03-12T07:34:11.505Z,100691.94
2023-03-12T07:36:38.238Z,100695.97
2023-03-12T07:39:04.832Z,100697.44
2023-03-12T07:41:31.459Z,100700.75
2023-03-12T07:43:59.308Z,100696.25
2023-03-12T07:46:25.919Z,100711.06
2023-03-12T07:48:53.116Z,100719.72
2023-03-12T07:51:19.656Z,100715.28
2023-03-12T07:53:46.163Z,100723.06
2023-03-12T07:56:12.808Z,100709.88
2023-03-12T07:58:39.649Z,100715.94
2023-03-12T08:01:06.919Z,100711.47
2023-03-12T08:03:33.982Z,100714.84
2023-03-12T08:06:03.409Z,100724.22
2023-03-12T08:08:31.277Z,100717.97
2023-03-12T08:10:59.297Z,100728.34
2023-03-12T08:13:26.293Z,100728.03
2023-03-12T08:15:54.014Z,100731.25
2023-03-12T08:18:21.250Z,100734.56
2023-03-12T08:20:50.438Z,100734.41
2023-03-12T08:23:17.009Z,100742.78
2023-03-12T08:25:46.932Z,100752.13
2023-03-12T08:28:14.416Z,100751.69
2023-03-12T08:30:54.720Z,100752.50
2023-03-12T08:33:21.950Z,100743.69
2023-03-12T08:35:49.150Z,100747.88
2023-03-12T08:38:15.796Z,100750.09
2023-03-12T08:40:42.343Z,100759.06
2023-03-12T08:43:08.929Z,100750.78
2023-03-12T08:45:36.493Z,100750.28
2023-03-12T08:48:06.873Z,100748.22
2023-03-12T08:50:33.885Z,100748.78
2023-03-12T08:53:00.446Z,100750.28
2023-03-12T08:55:29.856Z,100747.44
2023-03-12T08:57:56.809Z,100756.72
2023-03-12T09:00:23.397Z,100753.84
2023-03-12T09:02:52.120Z,100757.91
2023-03-12T09:05:19.341Z,100750.44
2023-03-12T09:07:45.940Z,100756.88
2023-03-12T09:10:12.574Z,100759.25
2023-03-12T09:12:39.183Z,100766.94
2023-03-12T09:15:06.469Z,100771.19
2023-03-12T09:17:33.215Z,100770.03
2023-03-12T09:20:00.177Z,100772.41
2023-03-12T09:22:26.731Z,100765.91
2023-03-12T09:24:53.247Z,100766.69
2023-03-12T09:27:19.893Z,100769.16
2023-03-12T09:29:59.491Z,100779.03
2023-03-12T09:32:27.639Z,100789.19
2023-03-12T09:34:54.592Z,100774.75
2023-03-12T09:37:23.960Z,100790.94
2023-03-12T09:39:51.558Z,100775.25
2023-03-12T09:42:27.710Z,100792.53
2023-03-12T09:44:55.728Z,100792.63
2023-03-12T09:47:29.946Z,100795.69
2023-03-12T09:50:23.768Z,100784.44
2023-03-12T09:53:02.403Z,100768.28
2023-03-12T09:55:39.358Z,100776.50
2023-03-12T09:58:13.334Z,100785.88
2023-03-12T10:00:40.125Z,100790.13
2023-03-12T10:03:12.751Z,100788.34
2023-03-12T10:05:51.655Z,100778.47
2023-03-12T10:08:27.154Z,100783.88
2023-03-12T10:11:14.915Z,100780.25
2023-03-12T10:13:57.682Z,100789.63
2023-03-12T10:16:42.428Z,100790.53
2023-03-12T10:19:31.776Z,100789.41
2023-03-12T10:22:20.504Z,100777.41
2023-03-12T10:24:54.743Z,100784.66
2023-03-12T10:27:22.995Z,100792.38
2023-03-12T10:29:51.029Z,100782.81
2023-03-12T10:32:21.708Z,100787.81
2023-03-12T10:34:55.341Z,100782.22
2023-03-12T10:37:44.344Z,100773.06
2023-03-12T10:40:16.554Z,100772.78
2023-03-12T10:42:43.185Z,100795.88
2023-03-12T10:45:09.644Z,100782.69
2023-03-12T10:47:39.963Z,100804.78
2023-03-12T10:50:19.737Z,100799.63
2023-03-12T10:52:48.773Z,100803.09
2023-03-12T10:55:29.720Z,100810.31
2023-03-12T10:57:56.722Z,100815.66
2023-03-12T11:00:28.245Z,100816.63
2023-03-12T11:03:06.124Z,100827.59
2023-03-12T11:05:45.309Z,100821.47
2023-03-12T11:08:24.250Z,100820.53
2023-03-12T11:10:50.835Z,100826.25
2023-03-12T11:13:32.831Z,100826.47
2023-03-12T11:16:04.254Z,100812.72
2023-03-12T11:18:32.596Z,100806.88
2023-03-12T11:21:11.365Z,100815.84
2023-03-12T11:23:43.147Z,100805.34
2023-03-12T11:26:22.123Z,100816.69
2023-03-12T11:28:57.198Z,100809.47
2023-03-12T11:31:31.240Z,100814.47
2023-03-12T11:34:03.673Z,100819.97
2023-03-12T11:36:55.497Z,100807.00
2023-03-12T11:39:28.053Z,100798.75
2023-03-12T11:42:06.888Z,100796.47
2023-03-12T11:44:39.271Z,100800.63
2023-03-12T11:47:20.338Z,100786.81
2023-03-12T11:49:53.102Z,100801.94
2023-03-12T11:52:52.573Z,100791.78
2023-03-12T11:55:27.074Z,100795.56
2023-03-12T11:58:02.748Z,100807.47
2023-03-12T12:00:55.024Z,100789.25
2023-03-12T12:03:35.229Z,100780.56
2023-03-12T12:06:04.465Z,100785.63
2023-03-12T12:08:52.769Z,100791.97
2023-03-12T12:11:30.724Z,100785.53
2023-03-12T12:14:13.455Z,100794.63
2023-03-12T12:17:18.406Z,100789.50
2023-03-12T12:19:55.636Z,100793.47
2023-03-12T12:22:34.345Z,100790.56
2023-03-12T12:25:12.845Z,100788.88
2023-03-12T12:28:37.378Z,100775.66
2023-03-12T12:31:18.902Z,100772.94
2023-03-12T12:33:48.339Z,100775.16
2023-03-12T12:36:15.039Z,100760.75
2023-03-12T12:38:49.605Z,100758.53
2023-03-12T12:41:18.656Z,100751.72
2023-03-12T12:43:49.241Z,100745.09
2023-03-12T12:46:22.297Z,100750.03
2023-03-12T12:48:53.798Z,100750.72
2023-03-12T12:51:23.280Z,100729.47
2023-03-12T12:54:00.716Z,100727.19
2023-03-12T12:56:33.071Z,100717.75
2023-03-12T12:59:25.153Z,100713.97
2023-03-12T13:01:55.082Z,100712.94
2023-03-12T13:04:32.438Z,100736.16
2023-03-12T13:07:14.210Z,100719.78
2023-03-12T13:09:42.087Z,100718.81
2023-03-12T13:12:26.919Z,100725.16
2023-03-12T13:14:55.515Z,100731.94
2023-03-12T13:17:25.770Z,100738.78
2023-03-12T13:20:01.400Z,100719.09
2023-03-12T13:22:37.629Z,100734.81
2023-03-12T13:25:13.591Z,100743.56
2023-03-12T13:27:42.628Z,100737.34
2023-03-12T13:30:27.583Z,100760.75
2023-03-12T13:32:57.201Z,100742.31
2023-03-12T13:35:23.818Z,100731.31
2023-03-12T13:37:53.311Z,100746.00
2023-03-12T13:40:28.877Z,100757.78
2023-03-12T13:43:34.154Z,100764.56
2023-03-12T13:46:14.080Z,100757.78
2023-03-12T13:48:45.899Z,100758.00
2023-03-12T13:51:17.611Z,100765.69
2023-03-12T13:53:48.952Z,100749.84
2023-03-12T13:56:18.927Z,100798.22
2023-03-12T13:58:54.950Z,100792.75
2023-03-12T14:01:24.233Z,100798.47
2023-03-12T14:03:55.266Z,100786.16
2023-03-12T14:06:24.465Z,100776.63
2023-03-12T14:09:24.233Z,100796.16
2023-03-12T14:12:13.911Z,100786.97
2023-03-12T14:14:58.335Z,100788.59
2023-03-12T14:17:27.730Z,100783.41
2023-03-12T14:20:17.286Z,100776.44
2023-03-12T14:22:45.915Z,100786.31
2023-03-12T14:25:45.489Z,100789.66
2023-03-12T14:28:21.304Z,100783.41
2023-03-12T14:31:10.112Z,100777.03
2023-03-12T14:33:49.573Z,100771.41
2023-03-12T14:36:19.222Z,100780.53
2023-03-12T14:38:48.803Z,100773.25
2023-03-12T14:41:23.042Z,100768.47
2023-03-12T14:43:52.597Z,100760.44
2023-03-12T14:46:23.533Z,100758.91
2023-03-12T14:48:52.378Z,100763.13
2023-03-12T14:51:27.396Z,100772.31
2023-03-12T14:53:54.590Z,100778.28
2023-03-12T14:56:30.622Z,100771.56
2023-03-12T14:58:59.302Z,100769.44
2023-03-12T15:01:33.483Z,100766.06
2023-03-12T15:04:06.442Z,100765.28
2023-03-12T15:06:32.904Z,100758.13
2023-03-12T15:09:04.177Z,100757.59
2023-03-12T15:11:32.774Z,100760.88
2023-03-12T15:14:14.400Z,100755.50
2023-03-12T15:16:42.818Z,100741.63
2023-03-12T15:19:12.733Z,100756.84
2023-03-12T15:21:39.622Z,100755.66
2023-03-12T15:24:06.885Z,100736.16
2023-03-12T15:26:36.430Z,100735.31
2023-03-12T15:29:28.672Z,100722.50
2023-03-12T15:31:57.608Z,100725.22
2023-03-12T15:34:32.214Z,100716.16
2023-03-12T15:37:00.898Z,100730.28
2023-03-12T15:39:29.759Z,100730.53
2023-03-12T15:42:00.738Z,100732.00
2023-03-12T15:44:30.001Z,100746.16
2023-03-12T15:47:15.621Z,100731.75
2023-03-12T15:49:42.399Z,100733.16
2023-03-12T15:52:18.044Z,100745.53
2023-03-12T15:55:14.286Z,100738.03
2023-03-12T15:57:48.121Z,100760.09
2023-03-12T16:00:24.055Z,100736.53
2023-03-12T16:03:02.430Z,100742.81
2023-03-12T16:05:34.488Z,100742.22
2023-03-12T16:08:21.168Z,100734.75
2023-03-12T16:10:49.048Z,100746.63
2023-03-12T16:13:17.501Z,100753.03
2023-03-12T16:15:44.274Z,100744.41
2023-03-12T16:18:17.350Z,100738.41
2023-03-12T16:20:44.340Z,100738.47
2023-03-12T16:23:11.203Z,100727.13
2023-03-12T16:25:38.614Z,100726.06
2023-03-12T16:28:06.496Z,100739.41
2023-03-12T16:30:36.140Z,100732.19
2023-03-12T16:33:08.630Z,100743.50
2023-03-12T16:35:35.612Z,100768.47
2023-03-12T16:38:02.681Z,100746.53
2023-03-12T16:40:34.350Z,100731.34
2023-03-12T16:43:03.517Z,100715.50
2023-03-12T16:45:31.504Z,100742.09
2023-03-12T16:48:00.801Z,100760.53
2023-03-12T16:50:27.655Z,100751.69
2023-03-12T16:52:54.209Z,100778.28
2023-03-12T16:55:22.560Z,100727.28
2023-03-12T16:58:07.353Z,100752.72
2023-03-12T17:00:34.367Z,100733.19
2023-03-12T17:03:01.860Z,100741.31
2023-03-12T17:05:29.696Z,100730.16
2023-03-12T17:07:57.135Z,100734.59
2023-03-12T17:10:24.542Z,100726.75
2023-03-12T17:12:51.369Z,100747.88
2023-03-12T17:15:26.358Z,100747.28
2023-03-12T17:17:52.930Z,100736.94
2023-03-12T17:20:21.254Z,100723.88
2023-03-12T17:22:48.161Z,100739.69
2023-03-12T17:25:23.371Z,100715.94
2023-03-12T17:27:50.577Z,100751.19
2023-03-12T17:30:17.571Z,100739.84
2023-03-12T17:32:44.221Z,100702.00
2023-03-12T17:35:11.275Z,100715.22
2023-03-12T17:37:37.924Z,100711.66
2023-03-12T17:40:09.436Z,100721.47
2023-03-12T17:42:36.973Z,100735.47
2023-03-12T17:45:08.172Z,100729.31
2023-03-12T17:47:35.694Z,100751.25
2023-03-12T17:50:03.129Z,100714.38
2023-03-12T17:52:31.727Z,100724.78
2023-03-12T17:54:58.257Z,100718.75
2023-03-12T17:57:27.831Z,100734.50
2023-03-12T17:59:54.338Z,100714.16
2023-03-12T18:02:21.332Z,100705.25
2023-03-12T18:04:47.959Z,100728.34
2023-03-12T18:07:14.527Z,100732.03
2023-03-12T18:09:41.066Z,100726.97
2023-03-12T18:12:07.696Z,100735.94
2023-03-12T18:14:34.684Z,100697.25
2023-03-12T18:17:01.227Z,100719.19
2023-03-12T18:19:29.368Z,100720.75
2023-03-12T18:21:56.131Z,100725.16
2023-03-12T18:24:22.690Z,100714.69
2023-03-12T18:26:51.600Z,100725.38
2023-03-12T18:29:18.255Z,100718.34
2023-03-12T18:31:44.873Z,100715.56
2023-03-12T18:34:11.452Z,100717.22
2023-03-12T18:36:38.015Z,100705.53
2023-03-12T18:39:06.168Z,100700.13
2023-03-12T18:41:33.007Z,100697.25
2023-03-12T18:44:00.122Z,100695.28
2023-03-12T18:46:26.933Z,100690.03
2023-03-12T18:48:53.604Z,100706.69
2023-03-12T18:51:20.568Z,100697.06
2023-03-12T18:53:47.219Z,100719.03
2023-03-12T18:56:14.218Z,100704.34
2023-03-12T18:58:40.713Z,100704.25
2023-03-12T19:01:07.242Z,100700.03
2023-03-12T19:03:36.326Z,100693.97
2023-03-12T19:06:06.897Z,100719.72
2023-03-12T19:08:34.122Z,100715.28
2023-03-12T19:11:00.807Z,100684.59
2023-03-12T19:13:27.461Z,100691.88
2023-03-12T19:16:01.122Z,100684.13
2023-03-12T19:18:28.400Z,100680.50
2023-03-12T19:20:55.142Z,100684.06
2023-03-12T19:23:22.492Z,100690.34
2023-03-12T19:25:49.208Z,100679.66
2023-03-12T19:28:15.805Z,100679.59
2023-03-12T19:30:42.405Z,100664.69
2023-03-12T19:33:09.064Z,100675.09
2023-03-12T19:35:39.745Z,100674.19
2023-03-12T19:38:06.372Z,100653.00
2023-03-12T19:40:34.215Z,100653.06
2023-03-12T19:43:01.762Z,100656.56
2023-03-12T19:45:28.798Z,100659.16
2023-03-12T19:47:55.407Z,100649.38
2023-03-12T19:50:21.934Z,100642.50
2023-03-12T19:52:48.896Z,100634.00
2023-03-12T19:55:15.588Z,100638.66
2023-03-12T19:57:42.125Z,100631.25
2023-03-12T20:00:09.883Z,100627.81
2023-03-12T20:02:37.564Z,100621.63
2023-03-12T20:05:05.169Z,100623.34
2023-03-12T20:07:32.308Z,100602.22
2023-03-12T20:09:58.836Z,100603.84
2023-03-12T20:12:25.468Z,100611.84
2023-03-12T20:14:52.090Z,100603.16
2023-03-12T20:17:18.678Z,100610.16
2023-03-12T20:19:45.502Z,100599.69
2023-03-12T20:22:12.075Z,100578.41
2023-03-12T20:24:38.920Z,100584.38
2023-03-12T20:27:05.479Z,100569.53
2023-03-12T20:29:32.125Z,100573.00
2023-03-12T20:31:58.750Z,100559.72
2023-03-12T20:34:25.382Z,100554.22
2023-03-12T20:36:52.140Z,100570.97
2023-03-12T20:39:18.702Z,100556.66
2023-03-12T20:41:45.188Z,100554.88
2023-03-12T20:44:11.852Z,100550.66
2023-03-12T20:46:38.371Z,100552.78
2023-03-12T20:49:05.108Z,100554.59
2023-03-12T20:51:31.747Z,100533.66
2023-03-12T20:53:58.324Z,100534.88
2023-03-12T20:56:24.836Z,100534.31
2023-03-12T20:58:52.148Z,100530.19
2023-03-12T21:01:18.726Z,100529.34
2023-03-12T21:03:45.846Z,100509.97
2023-03-12T21:06:12.345Z,100502.00
2023-03-12T21:08:38.880Z,100501.16
2023-03-12T21:11:06.720Z,100498.53
2023-03-12T21:13:33.244Z,100500.22
2023-03-12T21:15:59.749Z,100496.66
2023-03-12T21:18:26.278Z,100492.03
2023-03-12T21:20:53.013Z,100488.75
2023-03-12T21:23:19.601Z,100479.31
2023-03-12T21:25:46.249Z,100482.94
2023-03-12T21:28:12.965Z,100475.59
2023-03-12T21:30:39.739Z,100474.88
2023-03-12T21:33:07.321Z,100469.88
2023-03-12T21:35:34.021Z,100461.44
2023-03-12T21:38:02.508Z,100464.22
2023-03-12T21:40:29.175Z,100457.31
2023-03-12T21:42:55.673Z,100460.94
2023-03-12T21:45:22.170Z,100452.09
2023-03-12T21:47:48.713Z,100446.84
2023-03-12T21:50:15.167Z,100439.97
2023-03-12T21:52:47.714Z,100435.63
2023-03-12T21:55:14.808Z,100429.50
2023-03-12T21:57:41.346Z,100412.84
2023-03-12T22:00:14.000Z,100407.38
2023-03-12T22:02:41.791Z,100413.56
2023-03-12T22:05:08.854Z,100403.09
2023-03-12T22:07:35.427Z,100400.31
2023-03-12T22:10:02.557Z,100400.38
2023-03-12T22:12:29.140Z,100401.38
2023-03-12T22:14:55.672Z,100396.16
2023-03-12T22:17:22.199Z,100389.19
2023-03-12T22:19:48.835Z,100389.97
2023-03-12T22:22:15.334Z,100382.06
2023-03-12T22:24:41.882Z,100378.59
2023-03-12T22:27:08.473Z,100391.69
2023-03-12T22:29:35.186Z,100375.88
2023-03-12T22:32:02.031Z,100354.72
2023-03-12T22:34:29.672Z,100350.38
2023-03-12T22:36:56.289Z,100346.97
2023-03-12T22:39:22.801Z,100350.59
2023-03-12T22:41:52.682Z,100338.25
2023-03-12T22:44:19.433Z,100324.09
2023-03-12T22:46:45.973Z,100306.41
2023-03-12T22:49:12.556Z,100310.75
2023-03-12T22:51:39.253Z,100292.16
2023-03-12T22:54:05.821Z,100298.25
2023-03-12T22:56:32.518Z,100282.19
2023-03-12T22:58:59.049Z,100289.97
2023-03-12T23:01:25.734Z,100284.59
2023-03-12T23:03:52.734Z,100269.50
2023-03-12T23:06:25.065Z,100270.19
2023-03-12T23:08:52.123Z,100269.34
2023-03-12T23:11:19.571Z,100261.38
2023-03-12T23:13:46.872Z,100254.09
2023-03-12T23:16:16.427Z,100237.41
2023-03-12T23:18:43.001Z,100214.16
2023-03-12T23:21:12.135Z,100229.13
2023-03-12T23:23:39.573Z,100231.78
2023-03-12T23:26:06.557Z,100212.31
2023-03-12T23:28:33.130Z,100200.06
2023-03-12T23:31:06.283Z,100208.03
2023-03-12T23:33:34.026Z,100202.13
2023-03-12T23:36:03.066Z,100190.81
2023-03-12T23:38:31.045Z,100172.66
2023-03-12T23:41:02.230Z,100147.28
2023-03-12T23:43:28.910Z,100156.31
2023-03-12T23:45:57.517Z,100149.41
2023-03-12T23:48:25.308Z,100136.22
2023-03-12T23:50:51.918Z,100141.56
2023-03-12T23:53:18.449Z,100142.41
2023-03-12T23:55:54.318Z,100139.84
2023-03-12T23:58:20.811Z,100116.06
